createdAt,value
2019-05-20T00:01:14.602Z,12.70
2019-05-20T00:03:42.943Z,12.60
2019-05-20T00:06:11.491Z,12.70
2019-05-20T00:08:39.969Z,12.60
2019-05-20T00:11:08.482Z,12.70
2019-05-20T00:13:36.751Z,12.60
2019-05-20T00:16:05.255Z,12.60
2019-05-20T00:18:34.805Z,12.60
2019-05-20T00:21:03.125Z,12.60
2019-05-20T00:23:31.497Z,12.70
2019-05-20T00:26:00.030Z,12.70
2019-05-20T00:28:28.347Z,12.80
2019-05-20T00:30:56.614Z,12.80
2019-05-20T00:33:24.903Z,12.80
2019-05-20T00:35:53.347Z,12.90
2019-05-20T00:38:21.679Z,13.00
2019-05-20T00:40:50.157Z,13.10
2019-05-20T00:43:18.437Z,13.10
2019-05-20T00:45:46.848Z,13.10
2019-05-20T00:48:15.185Z,13.10
2019-05-20T00:50:43.662Z,13.20
2019-05-20T00:53:12.095Z,13.20
2019-05-20T00:55:40.610Z,13.20
2019-05-20T00:58:09.139Z,13.10
2019-05-20T01:00:37.508Z,13.10
2019-05-20T01:03:05.926Z,13.00
2019-05-20T01:05:34.698Z,12.90
2019-05-20T01:08:02.974Z,12.80
2019-05-20T01:10:32.096Z,12.80
2019-05-20T01:13:00.533Z,12.80
2019-05-20T01:15:29.078Z,12.80
2019-05-20T01:17:57.381Z,12.70
2019-05-20T01:20:25.784Z,12.70
2019-05-20T01:22:54.330Z,12.70
2019-05-20T01:25:22.785Z,12.70
2019-05-20T01:27:51.214Z,12.70
2019-05-20T01:30:19.660Z,12.80
2019-05-20T01:32:48.082Z,12.70
2019-05-20T01:35:16.676Z,12.80
2019-05-20T01:37:45.161Z,12.80
2019-05-20T01:40:13.585Z,12.80
2019-05-20T01:42:41.922Z,12.80
2019-05-20T01:45:10.267Z,12.80
2019-05-20T01:47:38.877Z,12.90
2019-05-20T01:50:07.647Z,12.90
2019-05-20T01:52:36.082Z,12.90
2019-05-20T01:55:06.521Z,12.90
2019-05-20T01:57:34.999Z,12.90
2019-05-20T02:00:05.306Z,13.00
2019-05-20T02:02:33.852Z,13.00
2019-05-20T02:05:06.344Z,13.00
2019-05-20T02:07:35.499Z,13.00
2019-05-20T02:10:07.266Z,13.00
2019-05-20T02:12:35.815Z,13.00
2019-05-20T02:15:23.702Z,13.00
2019-05-20T02:17:52.403Z,13.00
2019-05-20T02:20:20.822Z,13.00
2019-05-20T02:22:49.089Z,12.90
2019-05-20T02:25:17.582Z,13.00
2019-05-20T02:27:46.011Z,13.10
2019-05-20T02:30:14.322Z,13.10
2019-05-20T02:32:42.695Z,13.00
2019-05-20T02:35:11.089Z,12.90
2019-05-20T02:37:39.363Z,12.80
2019-05-20T02:40:08.272Z,12.70
2019-05-20T02:42:36.637Z,12.70
2019-05-20T02:45:06.828Z,12.70
2019-05-20T02:47:35.243Z,12.80
2019-05-20T02:50:04.721Z,12.80
2019-05-20T02:52:33.136Z,12.80
2019-05-20T02:55:01.752Z,12.80
2019-05-20T02:57:30.816Z,12.80
2019-05-20T02:59:59.678Z,12.80
2019-05-20T03:02:36.776Z,12.80
2019-05-20T03:05:02.746Z,12.90
2019-05-20T03:07:31.207Z,12.90
2019-05-20T03:09:59.813Z,12.90
2019-05-20T03:12:31.130Z,12.90
2019-05-20T03:15:00.038Z,12.90
2019-05-20T03:17:28.425Z,12.90
2019-05-20T03:19:56.901Z,12.90
2019-05-20T03:22:25.229Z,12.90
2019-05-20T03:24:53.672Z,12.90
2019-05-20T03:27:22.064Z,12.90
2019-05-20T03:29:50.602Z,12.90
2019-05-20T03:32:21.069Z,12.90
2019-05-20T03:34:58.500Z,12.90
2019-05-20T03:37:18.971Z,12.90
2019-05-20T03:39:50.309Z,12.90
2019-05-20T03:42:18.611Z,12.90
2019-05-20T03:44:46.911Z,12.90
2019-05-20T03:47:15.516Z,12.90
2019-05-20T03:49:43.866Z,12.90
2019-05-20T03:52:12.168Z,13.00
2019-05-20T03:54:40.678Z,13.00
2019-05-20T03:57:09.539Z,13.10
2019-05-20T03:59:40.600Z,13.20
2019-05-20T04:02:09.102Z,13.20
2019-05-20T04:04:37.656Z,13.30
2019-05-20T04:07:07.970Z,13.30
2019-05-20T04:09:36.968Z,13.40
2019-05-20T04:12:08.192Z,13.40
2019-05-20T04:14:43.099Z,13.50
2019-05-20T04:17:09.818Z,13.50
2019-05-20T04:19:38.282Z,13.50
2019-05-20T04:22:09.556Z,13.60
2019-05-20T04:24:37.861Z,13.70
2019-05-20T04:27:07.176Z,13.80
2019-05-20T04:29:35.881Z,13.80
2019-05-20T04:32:07.734Z,13.80
2019-05-20T04:34:36.845Z,13.80
2019-05-20T04:37:05.713Z,13.80
2019-05-20T04:39:35.651Z,13.90
2019-05-20T04:42:06.496Z,13.90
2019-05-20T04:44:35.636Z,13.90
2019-05-20T04:47:04.334Z,13.90
2019-05-20T04:49:33.751Z,13.90
2019-05-20T04:52:02.492Z,13.90
2019-05-20T04:54:31.194Z,13.90
2019-05-20T04:57:00.676Z,13.90
2019-05-20T04:59:29.294Z,13.90
2019-05-20T05:02:00.405Z,13.90
2019-05-20T05:04:28.750Z,13.80
2019-05-20T05:06:57.291Z,13.80
2019-05-20T05:09:25.668Z,13.90
2019-05-20T05:11:53.959Z,13.80
2019-05-20T05:14:23.341Z,13.80
2019-05-20T05:16:52.827Z,13.70
2019-05-20T05:19:22.673Z,13.80
2019-05-20T05:21:51.207Z,13.70
2019-05-20T05:24:19.713Z,13.70
2019-05-20T05:26:48.220Z,13.70
2019-05-20T05:29:16.825Z,13.80
2019-05-20T05:31:45.541Z,13.90
2019-05-20T05:34:14.604Z,14.00
2019-05-20T05:36:43.342Z,14.10
2019-05-20T05:39:11.967Z,14.40
2019-05-20T05:41:40.352Z,14.80
2019-05-20T05:44:09.848Z,15.00
2019-05-20T05:46:38.224Z,15.30
2019-05-20T05:49:06.731Z,15.80
2019-05-20T05:51:35.737Z,16.30
2019-05-20T05:54:05.269Z,16.70
2019-05-20T05:56:35.879Z,17.10
2019-05-20T05:59:05.404Z,17.20
2019-05-20T06:01:35.021Z,17.20
2019-05-20T06:04:03.540Z,17.00
2019-05-20T06:06:32.352Z,16.70
2019-05-20T06:09:01.700Z,16.70
2019-05-20T06:11:31.060Z,16.70
2019-05-20T06:14:01.488Z,17.00
2019-05-20T06:16:36.587Z,17.50
2019-05-20T06:19:01.727Z,18.50
2019-05-20T06:21:31.034Z,18.50
2019-05-20T06:24:00.076Z,18.60
2019-05-20T06:26:28.905Z,19.30
2019-05-20T06:29:02.922Z,19.10
2019-05-20T06:31:32.351Z,18.70
2019-05-20T06:34:00.685Z,18.30
2019-05-20T06:36:29.595Z,18.20
2019-05-20T06:39:14.084Z,18.50
2019-05-20T06:41:42.912Z,18.80
2019-05-20T06:44:11.952Z,18.80
2019-05-20T06:46:40.410Z,18.80
2019-05-20T06:49:09.477Z,19.00
2019-05-20T06:51:41.524Z,19.60
2019-05-20T06:54:11.963Z,19.80
2019-05-20T06:56:41.597Z,19.70
2019-05-20T06:59:10.591Z,19.50
2019-05-20T07:01:40.813Z,19.30
2019-05-20T07:04:10.823Z,18.90
2019-05-20T07:06:46.447Z,18.40
2019-05-20T07:09:09.385Z,18.20
2019-05-20T07:11:39.930Z,18.30
2019-05-20T07:14:09.231Z,18.50
2019-05-20T07:16:41.201Z,18.60
2019-05-20T07:19:12.150Z,18.80
2019-05-20T07:21:44.050Z,19.10
2019-05-20T07:24:12.694Z,18.90
2019-05-20T07:26:41.163Z,20.80
2019-05-20T07:29:10.120Z,22.50
2019-05-20T07:31:40.991Z,21.80
2019-05-20T07:34:11.875Z,20.80
2019-05-20T07:36:41.574Z,19.90
2019-05-20T07:39:14.143Z,20.20
2019-05-20T07:41:43.267Z,21.60
2019-05-20T07:44:16.734Z,24.00
2019-05-20T07:46:45.551Z,24.60
2019-05-20T07:49:14.731Z,24.00
2019-05-20T07:51:43.347Z,25.40
2019-05-20T07:54:13.084Z,25.70
2019-05-20T07:56:42.163Z,26.00
2019-05-20T07:59:10.665Z,26.20
2019-05-20T08:01:39.646Z,24.70
2019-05-20T08:04:08.384Z,24.20
2019-05-20T08:06:37.063Z,24.40
2019-05-20T08:09:07.500Z,23.20
2019-05-20T08:11:36.675Z,22.00
2019-05-20T08:14:05.358Z,21.50
2019-05-20T08:16:34.415Z,23.90
2019-05-20T08:19:03.224Z,26.40
2019-05-20T08:21:32.029Z,28.50
2019-05-20T08:24:00.585Z,28.70
2019-05-20T08:26:29.320Z,29.70
2019-05-20T08:28:58.009Z,29.60
2019-05-20T08:31:26.670Z,29.20
2019-05-20T08:33:57.879Z,28.60
2019-05-20T08:36:26.401Z,27.90
2019-05-20T08:38:55.219Z,28.70
2019-05-20T08:41:24.204Z,29.30
2019-05-20T08:43:53.052Z,28.90
2019-05-20T08:46:22.070Z,27.60
2019-05-20T08:48:50.714Z,26.90
2019-05-20T08:51:19.521Z,25.40
2019-05-20T08:53:47.957Z,24.60
2019-05-20T08:56:16.682Z,23.60
2019-05-20T08:58:45.687Z,23.30
2019-05-20T09:01:14.661Z,23.00
2019-05-20T09:03:43.667Z,23.30
2019-05-20T09:06:14.692Z,24.20
2019-05-20T09:08:45.370Z,25.20
2019-05-20T09:11:16.505Z,26.00
2019-05-20T09:13:45.739Z,26.00
2019-05-20T09:16:15.802Z,26.70
2019-05-20T09:18:44.681Z,26.90
2019-05-20T09:21:14.039Z,26.60
2019-05-20T09:23:42.495Z,26.30
2019-05-20T09:26:11.240Z,26.20
2019-05-20T09:28:40.086Z,26.10
2019-05-20T09:31:08.867Z,26.40
2019-05-20T09:33:38.454Z,26.70
2019-05-20T09:36:07.129Z,27.10
2019-05-20T09:38:38.659Z,26.00
2019-05-20T09:41:08.154Z,24.90
2019-05-20T09:43:37.015Z,24.30
2019-05-20T09:46:08.187Z,24.00
2019-05-20T09:48:36.180Z,23.10
2019-05-20T09:51:15.453Z,22.70
2019-05-20T09:53:44.703Z,22.60
2019-05-20T09:56:14.263Z,22.20
2019-05-20T09:58:43.612Z,21.90
2019-05-20T10:01:12.703Z,21.90
2019-05-20T10:03:44.308Z,21.90
2019-05-20T10:06:13.118Z,22.20
2019-05-20T10:08:47.378Z,22.20
2019-05-20T10:11:16.609Z,22.00
2019-05-20T10:13:45.269Z,21.70
2019-05-20T10:16:14.133Z,21.40
2019-05-20T10:18:44.633Z,21.10
2019-05-20T10:21:13.550Z,20.80
2019-05-20T10:23:42.735Z,20.40
2019-05-20T10:26:11.425Z,20.40
2019-05-20T10:28:42.186Z,20.30
2019-05-20T10:31:11.163Z,20.40
2019-05-20T10:33:44.422Z,20.20
2019-05-20T10:36:14.826Z,20.10
2019-05-20T10:38:57.266Z,19.90
2019-05-20T10:41:14.682Z,20.10
2019-05-20T10:43:44.007Z,20.40
2019-05-20T10:46:12.660Z,20.50
2019-05-20T10:48:41.371Z,20.70
2019-05-20T10:51:10.547Z,20.90
2019-05-20T10:53:39.751Z,21.00
2019-05-20T10:56:08.503Z,21.30
2019-05-20T10:58:40.277Z,21.60
2019-05-20T11:01:08.692Z,21.30
2019-05-20T11:03:37.806Z,21.40
2019-05-20T11:06:07.079Z,21.40
2019-05-20T11:08:35.879Z,21.50
2019-05-20T11:11:04.893Z,21.80
2019-05-20T11:13:35.085Z,22.10
2019-05-20T11:16:04.064Z,22.00
2019-05-20T11:18:32.880Z,22.00
2019-05-20T11:21:01.868Z,22.10
2019-05-20T11:23:30.387Z,21.80
2019-05-20T11:25:58.937Z,21.90
2019-05-20T11:28:28.109Z,22.00
2019-05-20T11:31:09.220Z,21.90
2019-05-20T11:33:40.777Z,21.70
2019-05-20T11:36:16.038Z,21.50
2019-05-20T11:38:45.855Z,21.20
2019-05-20T11:41:19.163Z,21.00
2019-05-20T11:43:48.665Z,21.00
2019-05-20T11:46:22.101Z,20.80
2019-05-20T11:48:52.526Z,20.90
2019-05-20T11:51:22.903Z,21.00
2019-05-20T11:53:56.034Z,21.20
2019-05-20T11:56:25.436Z,21.20
2019-05-20T11:58:59.456Z,21.00
2019-05-20T12:01:41.034Z,21.00
2019-05-20T12:04:14.627Z,21.10
2019-05-20T12:06:47.860Z,21.10
2019-05-20T12:09:19.459Z,21.00
2019-05-20T12:11:49.285Z,21.00
2019-05-20T12:14:24.712Z,21.20
2019-05-20T12:16:57.100Z,21.40
2019-05-20T12:19:26.953Z,21.60
2019-05-20T12:21:57.137Z,21.60
2019-05-20T12:24:28.324Z,21.70
2019-05-20T12:27:01.935Z,21.90
2019-05-20T12:29:33.170Z,21.50
2019-05-20T12:32:03.851Z,21.50
2019-05-20T12:34:35.198Z,21.60
2019-05-20T12:37:13.448Z,21.80
2019-05-20T12:39:42.872Z,21.80
2019-05-20T12:42:24.380Z,21.60
2019-05-20T12:44:52.509Z,21.70
2019-05-20T12:47:27.923Z,21.60
2019-05-20T12:49:58.380Z,21.80
2019-05-20T12:52:36.316Z,22.00
2019-05-20T12:55:10.408Z,22.00
2019-05-20T12:57:41.355Z,22.00
2019-05-20T13:00:17.523Z,22.30
2019-05-20T13:02:47.874Z,22.50
2019-05-20T13:05:19.983Z,22.40
2019-05-20T13:07:51.223Z,22.20
2019-05-20T13:10:29.848Z,22.30
2019-05-20T13:12:56.050Z,22.30
2019-05-20T13:15:27.000Z,22.30
2019-05-20T13:17:56.822Z,22.30
2019-05-20T13:20:29.258Z,22.70
2019-05-20T13:22:58.850Z,22.80
2019-05-20T13:25:30.259Z,22.60
2019-05-20T13:27:58.857Z,22.30
2019-05-20T13:30:31.180Z,22.30
2019-05-20T13:33:00.507Z,22.40
2019-05-20T13:35:30.693Z,22.40
2019-05-20T13:38:05.094Z,22.10
2019-05-20T13:40:45.869Z,22.00
2019-05-20T13:43:11.348Z,22.10
2019-05-20T13:45:39.709Z,22.00
2019-05-20T13:48:09.902Z,21.90
2019-05-20T13:50:43.718Z,21.70
2019-05-20T13:53:14.455Z,21.80
2019-05-20T13:55:45.405Z,21.70
2019-05-20T13:58:17.660Z,21.60
2019-05-20T14:00:50.760Z,21.40
2019-05-20T14:03:20.555Z,21.40
2019-05-20T14:05:50.194Z,21.30
2019-05-20T14:08:22.183Z,21.20
2019-05-20T14:11:03.484Z,21.00
2019-05-20T14:13:29.926Z,20.90
2019-05-20T14:16:01.202Z,20.80
2019-05-20T14:18:30.382Z,20.80
2019-05-20T14:21:01.698Z,20.80
2019-05-20T14:23:34.062Z,20.70
2019-05-20T14:26:03.372Z,20.70
2019-05-20T14:28:32.908Z,20.70
2019-05-20T14:31:05.815Z,20.80
2019-05-20T14:33:33.768Z,20.70
2019-05-20T14:36:04.295Z,20.80
2019-05-20T14:38:35.172Z,21.10
2019-05-20T14:41:20.350Z,21.30
2019-05-20T14:43:40.125Z,21.40
2019-05-20T14:46:09.856Z,21.40
2019-05-20T14:48:38.262Z,21.10
2019-05-20T14:51:09.086Z,21.10
2019-05-20T14:53:39.067Z,21.10
2019-05-20T14:56:10.893Z,21.20
2019-05-20T14:58:40.827Z,21.00
2019-05-20T15:01:08.920Z,21.00
2019-05-20T15:03:38.866Z,21.00
2019-05-20T15:06:06.865Z,21.00
2019-05-20T15:08:35.619Z,20.90
2019-05-20T15:11:04.603Z,20.80
2019-05-20T15:13:34.277Z,20.80
2019-05-20T15:16:03.175Z,20.70
2019-05-20T15:18:33.777Z,20.50
2019-05-20T15:21:05.215Z,20.50
2019-05-20T15:23:36.423Z,20.30
2019-05-20T15:26:08.793Z,20.10
2019-05-20T15:28:38.908Z,20.00
2019-05-20T15:31:11.515Z,20.10
2019-05-20T15:33:41.473Z,20.20
2019-05-20T15:36:10.569Z,20.30
2019-05-20T15:38:40.241Z,20.50
2019-05-20T15:41:09.914Z,20.60
2019-05-20T15:43:38.461Z,20.80
2019-05-20T15:46:07.629Z,20.90
2019-05-20T15:48:36.819Z,20.90
2019-05-20T15:51:17.910Z,20.60
2019-05-20T15:53:48.649Z,20.50
2019-05-20T15:56:18.524Z,20.30
2019-05-20T15:58:47.551Z,20.00
2019-05-20T16:01:17.328Z,19.90
2019-05-20T16:03:51.160Z,19.80
2019-05-20T16:06:19.075Z,19.60
2019-05-20T16:08:47.879Z,19.50
2019-05-20T16:11:16.987Z,19.40
2019-05-20T16:13:46.735Z,19.40
2019-05-20T16:16:15.011Z,19.40
2019-05-20T16:18:44.801Z,19.50
2019-05-20T16:21:13.257Z,19.50
2019-05-20T16:23:42.796Z,19.40
2019-05-20T16:26:11.859Z,19.40
2019-05-20T16:28:43.059Z,19.40
2019-05-20T16:31:16.250Z,19.30
2019-05-20T16:33:48.511Z,19.10
2019-05-20T16:36:17.036Z,19.00
2019-05-20T16:38:46.844Z,18.90
2019-05-20T16:41:14.806Z,18.70
2019-05-20T16:43:47.738Z,18.50
2019-05-20T16:46:16.809Z,18.30
2019-05-20T16:48:45.822Z,18.10
2019-05-20T16:51:14.690Z,18.00
2019-05-20T16:53:43.823Z,18.00
2019-05-20T16:56:12.594Z,18.00
2019-05-20T16:58:41.574Z,17.90
2019-05-20T17:01:10.439Z,17.70
2019-05-20T17:03:39.130Z,17.60
2019-05-20T17:06:08.022Z,17.50
2019-05-20T17:08:37.049Z,17.40
2019-05-20T17:11:08.136Z,17.20
2019-05-20T17:13:39.038Z,17.20
2019-05-20T17:16:08.047Z,17.00
2019-05-20T17:18:37.597Z,17.00
2019-05-20T17:21:16.566Z,16.90
2019-05-20T17:23:45.439Z,17.00
2019-05-20T17:26:22.558Z,17.00
2019-05-20T17:28:52.135Z,16.90
2019-05-20T17:31:20.808Z,16.70
2019-05-20T17:33:49.325Z,16.60
2019-05-20T17:36:18.057Z,16.60
2019-05-20T17:38:47.287Z,16.50
2019-05-20T17:41:19.743Z,16.40
2019-05-20T17:43:49.334Z,16.40
2019-05-20T17:46:19.355Z,16.30
2019-05-20T17:48:48.883Z,16.20
2019-05-20T17:51:21.542Z,16.10
2019-05-20T17:53:51.256Z,16.00
2019-05-20T17:56:21.472Z,15.80
2019-05-20T17:58:51.847Z,15.70
2019-05-20T18:01:20.885Z,15.60
2019-05-20T18:03:50.685Z,15.40
2019-05-20T18:06:20.189Z,15.30
2019-05-20T18:08:50.402Z,15.10
2019-05-20T18:11:19.986Z,15.10
2019-05-20T18:13:49.676Z,15.10
2019-05-20T18:16:24.835Z,15.10
2019-05-20T18:18:53.907Z,15.20
2019-05-20T18:21:22.746Z,15.20
2019-05-20T18:23:51.491Z,15.20
2019-05-20T18:26:19.975Z,15.20
2019-05-20T18:28:51.246Z,15.20
2019-05-20T18:31:31.909Z,15.20
2019-05-20T18:33:52.877Z,15.10
2019-05-20T18:36:26.373Z,15.00
2019-05-20T18:39:06.119Z,14.90
2019-05-20T18:41:37.227Z,14.70
2019-05-20T18:44:09.030Z,14.60
2019-05-20T18:46:40.191Z,14.60
2019-05-20T18:49:16.336Z,14.50
2019-05-20T18:51:48.700Z,14.40
2019-05-20T18:54:26.549Z,14.30
2019-05-20T18:57:00.249Z,14.30
2019-05-20T18:59:29.511Z,14.30
2019-05-20T19:02:05.505Z,14.30
2019-05-20T19:04:35.938Z,14.30
2019-05-20T19:07:05.213Z,14.30
2019-05-20T19:09:36.264Z,14.20
2019-05-20T19:12:07.493Z,14.20
2019-05-20T19:14:38.781Z,14.00
2019-05-20T19:17:09.391Z,13.90
2019-05-20T19:19:38.433Z,13.80
2019-05-20T19:22:09.832Z,13.60
2019-05-20T19:24:39.595Z,13.50
2019-05-20T19:27:09.747Z,13.40
2019-05-20T19:29:38.635Z,13.30
2019-05-20T19:32:07.181Z,13.30
2019-05-20T19:34:36.900Z,13.20
2019-05-20T19:37:05.480Z,13.10
2019-05-20T19:39:34.793Z,13.00
2019-05-20T19:42:04.854Z,13.00
2019-05-20T19:44:32.832Z,12.90
2019-05-20T19:47:01.806Z,12.80
2019-05-20T19:49:30.157Z,12.80
2019-05-20T19:51:58.693Z,12.80
2019-05-20T19:54:27.271Z,12.70
2019-05-20T19:56:59.300Z,12.70
2019-05-20T19:59:30.690Z,12.70
2019-05-20T20:01:59.951Z,12.60
2019-05-20T20:04:29.012Z,12.50
2019-05-20T20:06:58.360Z,12.40
2019-05-20T20:09:26.982Z,12.30
2019-05-20T20:11:55.665Z,12.20
2019-05-20T20:14:25.670Z,12.20
2019-05-20T20:16:54.059Z,12.10
2019-05-20T20:19:22.618Z,12.10
2019-05-20T20:21:51.160Z,12.00
2019-05-20T20:24:19.696Z,12.00
2019-05-20T20:26:48.223Z,11.90
2019-05-20T20:29:16.605Z,11.80
2019-05-20T20:31:44.872Z,11.80
2019-05-20T20:34:13.209Z,11.70
2019-05-20T20:36:42.031Z,11.60
2019-05-20T20:39:10.649Z,11.50
2019-05-20T20:41:39.312Z,11.50
2019-05-20T20:44:08.091Z,11.50
2019-05-20T20:46:39.990Z,11.60
2019-05-20T20:49:07.374Z,11.80
2019-05-20T20:51:35.730Z,11.80
2019-05-20T20:54:04.582Z,11.70
2019-05-20T20:56:34.313Z,11.60
2019-05-20T20:59:02.974Z,11.50
2019-05-20T21:01:31.328Z,11.50
2019-05-20T21:04:00.201Z,11.50
2019-05-20T21:06:28.629Z,11.50
2019-05-20T21:08:57.191Z,11.50
2019-05-20T21:11:25.770Z,11.40
2019-05-20T21:13:55.226Z,11.50
2019-05-20T21:16:23.915Z,11.40
2019-05-20T21:18:56.384Z,11.40
2019-05-20T21:21:25.265Z,11.40
2019-05-20T21:23:57.994Z,11.30
2019-05-20T21:26:26.607Z,11.30
2019-05-20T21:28:56.397Z,11.50
2019-05-20T21:31:25.142Z,11.50
2019-05-20T21:33:53.659Z,11.50
2019-05-20T21:36:22.092Z,11.40
2019-05-20T21:38:50.611Z,11.30
2019-05-20T21:41:19.998Z,11.30
2019-05-20T21:43:48.453Z,11.20
2019-05-20T21:46:17.259Z,11.20
2019-05-20T21:48:46.833Z,11.10
2019-05-20T21:51:15.214Z,11.00
2019-05-20T21:54:00.870Z,10.90
2019-05-20T21:56:46.008Z,10.90
2019-05-20T21:59:11.615Z,10.80
2019-05-20T22:01:40.243Z,10.80
2019-05-20T22:04:09.078Z,10.70
2019-05-20T22:06:37.414Z,10.70
2019-05-20T22:09:08.978Z,10.60
2019-05-20T22:11:44.336Z,10.50
2019-05-20T22:14:14.328Z,10.50
2019-05-20T22:16:44.878Z,10.50
2019-05-20T22:19:18.666Z,10.40
2019-05-20T22:21:52.207Z,10.40
2019-05-20T22:24:21.154Z,10.40
2019-05-20T22:26:49.596Z,10.30
2019-05-20T22:29:22.059Z,10.30
2019-05-20T22:31:56.610Z,10.30
2019-05-20T22:34:27.868Z,10.30
2019-05-20T22:36:56.284Z,10.30
2019-05-20T22:39:24.761Z,10.30
2019-05-20T22:41:53.535Z,10.20
2019-05-20T22:44:21.940Z,10.30
2019-05-20T22:46:50.405Z,10.30
2019-05-20T22:49:19.302Z,10.40
2019-05-20T22:51:48.129Z,10.40
2019-05-20T22:54:16.612Z,10.40
2019-05-20T22:56:48.112Z,10.40
2019-05-20T22:59:16.583Z,10.50
2019-05-20T23:01:45.270Z,10.60
2019-05-20T23:04:13.931Z,10.70
2019-05-20T23:06:42.178Z,10.60
2019-05-20T23:09:10.992Z,10.60
2019-05-20T23:11:40.011Z,10.60
2019-05-20T23:14:08.541Z,10.50
2019-05-20T23:16:40.892Z,10.40
2019-05-20T23:19:10.084Z,10.30
2019-05-20T23:21:38.469Z,10.30
2019-05-20T23:24:07.049Z,10.20
2019-05-20T23:26:35.365Z,10.10
2019-05-20T23:29:03.626Z,10.10
2019-05-20T23:31:32.227Z,10.10
2019-05-20T23:34:12.387Z,10.20
2019-05-20T23:36:31.112Z,10.30
2019-05-20T23:38:59.688Z,10.40
2019-05-20T23:41:28.161Z,10.40
2019-05-20T23:43:56.540Z,10.50
2019-05-20T23:46:24.886Z,10.40
2019-05-20T23:48:53.221Z,10.40
2019-05-20T23:51:21.623Z,10.30
2019-05-20T23:53:50.791Z,10.20
2019-05-20T23:56:19.801Z,10.20
2019-05-20T23:58:48.730Z,10.20
